Tapejara, Brazil
Current Conditions -  °F | °C
As of 8:00 PM on Monday 26 Jan 2015 (Local Time) from SBCH Reporting Station
Few Clouds Few Clouds  
Wind Chill: 84°   Ceiling: Unl
Heat Index: 87°   Visibility: 6mi
Dew Point: 68°   Wind: 6mph
Humidity: 58%   Direction: 250°WSW
Pressure: 29.88"   Gusts: NA
Location:  28.07°S, 52.01°W
Report Text: SBCH 262200Z 25005KT 9999 FEW030 FEW050TCU 29/20 Q1012
Loading
Personal Weather Stations






























Interactive Weather Map New forecast layout! Learn more

10-Day Weather Forecast

Advertisements
Track Severe Weather on mobile